SKY weather

CLOSED Griffing Sandusky Airport
Sandusky, Ohio, United States

Public forecast

Using degrees Fahrenheit for public forecast. Weather courtesy of forecast.io.

Closest aviation weather report (METAR) to Griffing Sandusky Airport

Closest report is Carl R Keller Field, 10.9 nm (20.2 km) WNW. Retrieved 2020/05/30 22:35 UTC (1 hour ago):

KPCW 302235Z AUTO VRB03KT 10SM BKN080 19/08 A3009 RMK AO2

Closest aviation forecast (TAF) to Griffing Sandusky Airport

Closest forecast is Cleveland Hopkins International Airport, 36.2 nm (67.0 km) E. Retrieved 2020/05/30 18:39 UTC (5 hours ago):

TAF KCLE 301736Z 3018/3124 32012G20KT P6SM SCT040 FM310100 36004KT P6SM SCT040 BKN090 FM310300 02005KT P6SM FEW035 BKN050 FM311600 35012KT P6SM FEW040 SCT200